createdAt,value
2023-03-21T00:00:12.184Z,1010.18
2023-03-21T00:01:11.226Z,1010.28
2023-03-21T00:02:11.232Z,1010.24
2023-03-21T00:03:11.218Z,1010.24
2023-03-21T00:04:11.265Z,1010.23
2023-03-21T00:05:15.705Z,1010.28
2023-03-21T00:06:12.160Z,1010.23
2023-03-21T00:07:11.124Z,1010.22
2023-03-21T00:08:11.088Z,1010.26
2023-03-21T00:09:11.084Z,1010.25
2023-03-21T00:10:16.561Z,1010.21
2023-03-21T00:11:12.105Z,1010.19
2023-03-21T00:12:11.082Z,1010.19
2023-03-21T00:13:11.180Z,1010.19
2023-03-21T00:14:11.026Z,1010.19
2023-03-21T00:15:11.011Z,1010.15
2023-03-21T00:16:13.647Z,1010.20
2023-03-21T00:17:12.007Z,1010.15
2023-03-21T00:18:10.984Z,1010.15
2023-03-21T00:19:10.977Z,1010.15
2023-03-21T00:20:10.987Z,1010.10
2023-03-21T00:21:39.158Z,1010.11
2023-03-21T00:22:11.937Z,1010.11
2023-03-21T00:23:10.930Z,1010.10
2023-03-21T00:24:10.914Z,1010.10
2023-03-21T00:25:10.900Z,1010.12
2023-03-21T00:26:10.907Z,1010.10
2023-03-21T00:27:34.572Z,1010.09
2023-03-21T00:28:11.869Z,1010.08
2023-03-21T00:29:10.841Z,1010.01
2023-03-21T00:30:10.834Z,1010.07
2023-03-21T00:31:10.877Z,1010.00
2023-03-21T00:32:10.834Z,1010.05
2023-03-21T00:33:21.978Z,1010.03
2023-03-21T00:35:51.286Z,1010.02
2023-03-21T00:36:12.338Z,1010.04
2023-03-21T00:37:10.760Z,1010.02
2023-03-21T00:38:10.763Z,1010.00
2023-03-21T00:39:10.730Z,1010.03
2023-03-21T00:40:16.385Z,1010.01
2023-03-21T00:41:23.309Z,1010.00
2023-03-21T00:42:11.699Z,1010.00
2023-03-21T00:43:10.690Z,1010.03
2023-03-21T00:44:10.718Z,1010.01
2023-03-21T00:45:10.649Z,1010.00
2023-03-21T00:46:10.714Z,1009.97
2023-03-21T00:47:10.674Z,1009.99
2023-03-21T00:48:10.702Z,1010.02
2023-03-21T00:49:10.649Z,1009.97
2023-03-21T00:50:10.613Z,1009.95
2023-03-21T00:51:10.638Z,1009.97
2023-03-21T00:52:27.369Z,1009.93
2023-03-21T00:53:11.574Z,1009.93
2023-03-21T00:54:10.572Z,1009.93
2023-03-21T00:55:10.548Z,1009.98
2023-03-21T00:56:10.588Z,1009.94
2023-03-21T00:57:10.538Z,1009.99
2023-03-21T00:58:10.528Z,1009.97
2023-03-21T00:59:10.516Z,1010.00
2023-03-21T01:00:10.601Z,1009.97
2023-03-21T01:01:10.540Z,1009.98
2023-03-21T01:02:10.487Z,1009.96
2023-03-21T01:03:23.144Z,1009.99
2023-03-21T01:04:11.442Z,1009.99
2023-03-21T01:05:10.430Z,1009.97
2023-03-21T01:06:10.473Z,1009.98
2023-03-21T01:07:10.429Z,1009.95
2023-03-21T01:08:23.772Z,1009.93
2023-03-21T01:09:11.385Z,1009.90
2023-03-21T01:10:10.382Z,1009.91
2023-03-21T01:11:10.412Z,1009.90
2023-03-21T01:12:10.359Z,1009.91
2023-03-21T01:13:10.345Z,1009.92
2023-03-21T01:14:22.018Z,1009.93
2023-03-21T01:15:11.307Z,1009.91
2023-03-21T01:16:10.382Z,1009.91
2023-03-21T01:17:10.296Z,1009.93
2023-03-21T01:18:10.304Z,1009.96
2023-03-21T01:19:22.261Z,1009.94
2023-03-21T01:20:11.268Z,1009.93
2023-03-21T01:21:10.275Z,1009.96
2023-03-21T01:22:10.254Z,1009.97
2023-03-21T01:23:10.218Z,1009.98
2023-03-21T01:24:10.215Z,1009.95
2023-03-21T01:25:22.001Z,1009.94
2023-03-21T01:26:11.225Z,1010.00
2023-03-21T01:27:10.177Z,1009.95
2023-03-21T01:28:10.175Z,1009.95
2023-03-21T01:29:10.174Z,1009.94
2023-03-21T01:30:19.108Z,1009.99
2023-03-21T01:31:11.201Z,1010.00
2023-03-21T01:32:10.135Z,1009.99
2023-03-21T01:33:10.113Z,1009.99
2023-03-21T01:34:10.117Z,1009.97
2023-03-21T01:35:10.065Z,1009.96
2023-03-21T01:36:13.370Z,1009.99
2023-03-21T01:37:10.066Z,1009.97
2023-03-21T01:38:10.061Z,1010.03
2023-03-21T01:39:10.050Z,1010.04
2023-03-21T01:40:10.058Z,1010.04
2023-03-21T01:41:19.209Z,1010.05
2023-03-21T01:42:11.007Z,1010.05
2023-03-21T01:43:10.008Z,1010.02
2023-03-21T01:44:09.997Z,1009.99
2023-03-21T01:45:09.973Z,1009.99
2023-03-21T01:46:10.064Z,1010.02
2023-03-21T01:47:11.884Z,1010.01
2023-03-21T01:48:09.953Z,1010.01
2023-03-21T01:49:09.915Z,1010.06
2023-03-21T01:50:09.917Z,1010.03
2023-03-21T01:51:09.926Z,1010.03
2023-03-21T01:52:15.271Z,1009.99
2023-03-21T01:53:10.876Z,1009.97
2023-03-21T01:54:09.872Z,1010.01
2023-03-21T01:55:09.862Z,1009.98
2023-03-21T01:56:09.893Z,1009.94
2023-03-21T01:57:09.843Z,1009.97
2023-03-21T01:58:09.930Z,1009.94
2023-03-21T01:59:09.818Z,1009.98
2023-03-21T02:00:09.832Z,1010.01
2023-03-21T02:01:09.909Z,1009.97
2023-03-21T02:02:09.765Z,1009.95
2023-03-21T02:03:15.262Z,1009.90
2023-03-21T02:04:10.773Z,1009.96
2023-03-21T02:05:09.787Z,1009.95
2023-03-21T02:06:09.808Z,1009.95
2023-03-21T02:07:09.785Z,1009.94
2023-03-21T02:08:09.690Z,1009.94
2023-03-21T02:09:09.730Z,1009.92
2023-03-21T02:10:09.690Z,1009.91
2023-03-21T02:11:09.686Z,1009.94
2023-03-21T02:12:09.660Z,1009.94
2023-03-21T02:13:09.669Z,1009.94
2023-03-21T02:14:10.109Z,1009.93
2023-03-21T02:15:09.617Z,1009.95
2023-03-21T02:16:09.655Z,1009.93
2023-03-21T02:17:09.588Z,1009.97
2023-03-21T02:18:09.588Z,1009.95
2023-03-21T02:19:09.572Z,1009.96
2023-03-21T02:20:09.579Z,1009.96
2023-03-21T02:21:09.584Z,1009.93
2023-03-21T02:22:09.561Z,1009.93
2023-03-21T02:23:09.542Z,1009.96
2023-03-21T02:24:09.522Z,1009.94
2023-03-21T02:25:21.273Z,1009.94
2023-03-21T02:26:10.539Z,1009.91
2023-03-21T02:27:09.485Z,1009.95
2023-03-21T02:28:09.475Z,1009.93
2023-03-21T02:29:09.455Z,1009.88
2023-03-21T02:30:09.943Z,1009.90
2023-03-21T02:31:09.497Z,1009.89
2023-03-21T02:32:20.406Z,1009.86
2023-03-21T02:33:10.411Z,1009.84
2023-03-21T02:34:09.414Z,1009.81
2023-03-21T02:35:09.402Z,1009.82
2023-03-21T02:36:14.417Z,1009.86
2023-03-21T02:37:10.360Z,1009.87
2023-03-21T02:38:09.348Z,1009.89
2023-03-21T02:39:09.333Z,1009.89
2023-03-21T02:40:09.346Z,1009.83
2023-03-21T02:41:17.977Z,1009.91
2023-03-21T02:42:10.307Z,1009.85
2023-03-21T02:43:20.835Z,1009.89
2023-03-21T02:44:10.285Z,1009.89
2023-03-21T02:45:09.283Z,1009.90
2023-03-21T02:46:09.328Z,1009.91
2023-03-21T02:47:09.313Z,1009.86
2023-03-21T02:48:14.571Z,1009.85
2023-03-21T02:49:10.258Z,1009.88
2023-03-21T02:50:09.230Z,1009.86
2023-03-21T02:51:09.238Z,1009.93
2023-03-21T02:52:16.997Z,1009.93
2023-03-21T02:53:10.188Z,1009.91
2023-03-21T02:55:10.181Z,1009.85
2023-03-21T02:56:09.212Z,1009.88
2023-03-21T02:57:09.149Z,1009.89
2023-03-21T02:58:13.124Z,1009.84
2023-03-21T02:59:09.112Z,1009.87
2023-03-21T03:00:16.298Z,1009.90
2023-03-21T03:01:10.287Z,1009.89
2023-03-21T03:02:09.091Z,1009.89
2023-03-21T03:03:12.658Z,1009.88
2023-03-21T03:04:10.159Z,1009.90
2023-03-21T03:05:20.475Z,1009.90
2023-03-21T03:06:10.078Z,1009.89
2023-03-21T03:07:09.039Z,1009.94
2023-03-21T03:08:09.013Z,1009.93
2023-03-21T03:09:08.996Z,1009.91
2023-03-21T03:10:09.003Z,1009.95
2023-03-21T03:11:09.009Z,1009.94
2023-03-21T03:12:08.977Z,1009.94
2023-03-21T03:13:08.953Z,1009.93
2023-03-21T03:14:28.538Z,1009.93
2023-03-21T03:15:09.937Z,1009.94
2023-03-21T03:16:08.995Z,1009.93
2023-03-21T03:17:08.916Z,1009.90
2023-03-21T03:18:08.913Z,1009.95
2023-03-21T03:19:08.907Z,1009.91
2023-03-21T03:20:16.271Z,1009.91
2023-03-21T03:21:09.910Z,1009.94
2023-03-21T03:22:08.863Z,1009.91
2023-03-21T03:23:08.842Z,1009.88
2023-03-21T03:24:08.842Z,1009.93
2023-03-21T03:25:19.839Z,1009.90
2023-03-21T03:26:09.861Z,1009.89
2023-03-21T03:27:08.802Z,1009.88
2023-03-21T03:28:08.801Z,1009.87
2023-03-21T03:29:08.774Z,1009.88
2023-03-21T03:30:08.759Z,1009.82
2023-03-21T03:31:10.198Z,1009.87
2023-03-21T03:32:08.795Z,1009.87
2023-03-21T03:33:08.735Z,1009.83
2023-03-21T03:34:08.717Z,1009.81
2023-03-21T03:35:08.732Z,1009.83
2023-03-21T03:36:10.887Z,1009.82
2023-03-21T03:37:08.697Z,1009.80
2023-03-21T03:38:08.692Z,1009.82
2023-03-21T03:39:08.691Z,1009.85
2023-03-21T03:40:08.652Z,1009.85
2023-03-21T03:41:08.682Z,1009.81
2023-03-21T03:42:21.891Z,1009.81
2023-03-21T03:43:09.619Z,1009.83
2023-03-21T03:44:08.596Z,1009.86
2023-03-21T03:45:08.570Z,1009.85
2023-03-21T03:46:08.636Z,1009.87
2023-03-21T03:47:08.597Z,1009.83
2023-03-21T03:48:08.609Z,1009.85
2023-03-21T03:49:08.561Z,1009.85
2023-03-21T03:50:08.551Z,1009.86
2023-03-21T03:51:08.563Z,1009.85
2023-03-21T03:52:08.515Z,1009.87
2023-03-21T03:53:17.716Z,1009.85
2023-03-21T03:54:09.491Z,1009.83
2023-03-21T03:55:08.478Z,1009.87
2023-03-21T03:56:08.502Z,1009.87
2023-03-21T03:57:08.445Z,1009.88
2023-03-21T03:58:21.131Z,1009.87
2023-03-21T03:59:09.446Z,1009.83
2023-03-21T04:00:08.419Z,1009.81
2023-03-21T04:01:08.435Z,1009.82
2023-03-21T04:02:08.409Z,1009.85
2023-03-21T04:03:08.458Z,1009.85
2023-03-21T04:04:13.302Z,1009.83
2023-03-21T04:05:09.352Z,1009.83
2023-03-21T04:06:08.383Z,1009.84
2023-03-21T04:07:08.346Z,1009.80
2023-03-21T04:08:08.327Z,1009.83
2023-03-21T04:09:19.128Z,1009.89
2023-03-21T04:10:09.313Z,1009.90
2023-03-21T04:11:08.320Z,1009.90
2023-03-21T04:12:08.287Z,1009.89
2023-03-21T04:13:08.273Z,1009.91
2023-03-21T04:14:08.255Z,1009.88
2023-03-21T04:15:11.109Z,1009.89
2023-03-21T04:16:08.298Z,1009.90
2023-03-21T04:17:08.237Z,1009.86
2023-03-21T04:18:08.228Z,1009.87
2023-03-21T04:19:08.209Z,1009.88
2023-03-21T04:20:13.049Z,1009.86
2023-03-21T04:21:09.207Z,1009.87
2023-03-21T04:22:08.218Z,1009.86
2023-03-21T04:23:08.181Z,1009.87
2023-03-21T04:24:08.168Z,1009.86
2023-03-21T04:25:08.158Z,1009.90
2023-03-21T04:26:08.165Z,1009.86
2023-03-21T04:27:08.136Z,1009.88
2023-03-21T04:28:08.123Z,1009.85
2023-03-21T04:29:08.101Z,1009.86
2023-03-21T04:30:08.134Z,1009.85
2023-03-21T04:31:19.078Z,1009.85
2023-03-21T04:32:09.116Z,1009.90
2023-03-21T04:33:08.072Z,1009.86
2023-03-21T04:34:08.060Z,1009.83
2023-03-21T04:35:08.035Z,1009.83
2023-03-21T04:36:08.096Z,1009.84
2023-03-21T04:37:08.027Z,1009.83
2023-03-21T04:38:08.016Z,1009.83
2023-03-21T04:39:07.992Z,1009.89
2023-03-21T04:40:07.986Z,1009.87
2023-03-21T04:41:08.019Z,1009.85
2023-03-21T04:42:07.961Z,1009.89
2023-03-21T04:43:07.982Z,1009.86
2023-03-21T04:44:07.944Z,1009.90
2023-03-21T04:45:07.956Z,1009.87
2023-03-21T04:46:07.990Z,1009.89
2023-03-21T04:47:07.897Z,1009.91
2023-03-21T04:48:07.966Z,1009.91
2023-03-21T04:49:07.898Z,1009.88
2023-03-21T04:50:07.876Z,1009.93
2023-03-21T04:51:07.903Z,1009.87
2023-03-21T04:52:07.855Z,1009.84
2023-03-21T04:53:07.834Z,1009.86
2023-03-21T04:54:41.618Z,1009.82
2023-03-21T04:55:41.635Z,1009.83
2023-03-21T04:56:41.588Z,1009.81
2023-03-21T04:57:41.599Z,1009.83
2023-03-21T04:58:41.571Z,1009.84
2023-03-21T04:59:41.587Z,1009.81
2023-03-21T05:00:41.585Z,1009.84
2023-03-21T05:01:41.557Z,1009.87
2023-03-21T05:02:41.525Z,1009.89
2023-03-21T05:03:41.615Z,1009.87
2023-03-21T05:04:41.494Z,1009.86
2023-03-21T05:05:41.557Z,1009.88
2023-03-21T05:06:41.491Z,1009.88
2023-03-21T05:07:41.478Z,1009.94
2023-03-21T05:08:41.470Z,1009.91
2023-03-21T05:09:41.472Z,1009.91
2023-03-21T05:10:41.500Z,1009.95
2023-03-21T05:11:41.436Z,1009.91
2023-03-21T05:12:41.428Z,1009.90
2023-03-21T05:13:41.429Z,1009.93
2023-03-21T05:14:41.416Z,1009.92
2023-03-21T05:15:41.458Z,1009.93
2023-03-21T05:16:41.406Z,1009.90
2023-03-21T05:17:41.387Z,1009.92
2023-03-21T05:18:41.350Z,1009.91
2023-03-21T05:19:41.389Z,1009.89
2023-03-21T05:20:41.371Z,1009.92
2023-03-21T05:21:41.379Z,1009.97
2023-03-21T05:22:41.326Z,1009.95
2023-03-21T05:23:41.311Z,1010.00
2023-03-21T05:24:41.284Z,1010.00
2023-03-21T05:25:41.312Z,1010.00
2023-03-21T05:26:41.277Z,1010.06
2023-03-21T05:27:41.258Z,1010.06
2023-03-21T05:28:41.247Z,1010.08
2023-03-21T05:29:41.238Z,1010.05
2023-03-21T05:30:41.277Z,1010.07
2023-03-21T05:31:41.226Z,1010.04
2023-03-21T05:32:41.222Z,1010.09
2023-03-21T05:33:41.206Z,1010.13
2023-03-21T05:34:41.182Z,1010.09
2023-03-21T05:35:41.419Z,1010.09
2023-03-21T05:36:41.159Z,1010.10
2023-03-21T05:37:41.172Z,1010.08
2023-03-21T05:38:41.139Z,1010.11
2023-03-21T05:39:41.149Z,1010.10
2023-03-21T05:40:41.171Z,1010.06
2023-03-21T05:41:41.114Z,1010.10
2023-03-21T05:42:41.105Z,1010.07
2023-03-21T05:43:41.067Z,1010.12
2023-03-21T05:44:41.070Z,1010.10
2023-03-21T05:45:41.117Z,1010.13
2023-03-21T05:46:41.055Z,1010.13
2023-03-21T05:47:41.074Z,1010.08
2023-03-21T05:48:41.048Z,1010.10
2023-03-21T05:49:41.009Z,1010.10
2023-03-21T05:50:41.035Z,1010.10
2023-03-21T05:51:41.011Z,1010.09
2023-03-21T05:52:41.002Z,1010.04
2023-03-21T05:53:40.994Z,1010.06
2023-03-21T05:54:40.957Z,1010.09
2023-03-21T05:55:40.981Z,1010.07
2023-03-21T05:56:40.924Z,1010.09
2023-03-21T05:57:40.944Z,1010.09
2023-03-21T05:58:40.948Z,1010.08
2023-03-21T05:59:40.907Z,1010.10
2023-03-21T06:00:40.923Z,1010.13
2023-03-21T06:01:40.924Z,1010.14
2023-03-21T06:02:40.910Z,1010.17
2023-03-21T06:03:40.881Z,1010.18
2023-03-21T06:04:40.830Z,1010.17
2023-03-21T06:05:40.885Z,1010.17
2023-03-21T06:06:40.810Z,1010.17
2023-03-21T06:07:40.799Z,1010.17
2023-03-21T06:08:40.809Z,1010.11
2023-03-21T06:09:40.788Z,1010.14
2023-03-21T06:10:40.813Z,1010.15
2023-03-21T06:11:40.754Z,1010.15
2023-03-21T06:12:40.766Z,1010.13
2023-03-21T06:13:40.759Z,1010.20
2023-03-21T06:14:40.740Z,1010.16
2023-03-21T06:15:40.799Z,1010.14
2023-03-21T06:16:40.694Z,1010.16
2023-03-21T06:17:40.678Z,1010.18
2023-03-21T06:18:40.685Z,1010.16
2023-03-21T06:19:40.721Z,1010.14
2023-03-21T06:20:40.679Z,1010.15
2023-03-21T06:21:40.643Z,1010.15
2023-03-21T06:22:40.661Z,1010.15
2023-03-21T06:23:40.606Z,1010.17
2023-03-21T06:24:40.593Z,1010.11
2023-03-21T06:25:40.622Z,1010.15
2023-03-21T06:26:40.595Z,1010.07
2023-03-21T06:27:40.597Z,1010.15
2023-03-21T06:28:40.547Z,1010.14
2023-03-21T06:29:40.578Z,1010.11
2023-03-21T06:30:40.602Z,1010.11
2023-03-21T06:31:40.634Z,1010.12
2023-03-21T06:32:40.518Z,1010.16
2023-03-21T06:33:40.531Z,1010.10
2023-03-21T06:34:40.496Z,1010.16
2023-03-21T06:35:40.683Z,1010.19
2023-03-21T06:36:40.473Z,1010.15
2023-03-21T06:37:40.452Z,1010.16
2023-03-21T06:38:40.455Z,1010.17
2023-03-21T06:39:40.443Z,1010.13
2023-03-21T06:40:40.465Z,1010.18
2023-03-21T06:41:40.410Z,1010.20
2023-03-21T06:42:40.434Z,1010.17
2023-03-21T06:43:40.412Z,1010.18
2023-03-21T06:44:40.386Z,1010.19
2023-03-21T06:45:40.416Z,1010.18
2023-03-21T06:46:40.405Z,1010.18
2023-03-21T06:47:40.404Z,1010.17
2023-03-21T06:48:40.363Z,1010.19
2023-03-21T06:49:40.352Z,1010.20
2023-03-21T06:50:40.378Z,1010.23
2023-03-21T06:51:40.387Z,1010.22
2023-03-21T06:52:40.344Z,1010.22
2023-03-21T06:53:40.273Z,1010.26
2023-03-21T06:54:40.304Z,1010.27
2023-03-21T06:55:40.491Z,1010.25
2023-03-21T06:56:40.260Z,1010.24
2023-03-21T06:57:40.255Z,1010.28
2023-03-21T06:58:40.249Z,1010.26
2023-03-21T06:59:40.222Z,1010.25
2023-03-21T07:00:40.293Z,1010.25
2023-03-21T07:01:40.192Z,1010.24
2023-03-21T07:02:40.193Z,1010.24
2023-03-21T07:03:40.205Z,1010.25
2023-03-21T07:04:40.160Z,1010.26
2023-03-21T07:05:40.451Z,1010.28
2023-03-21T07:06:40.142Z,1010.26
2023-03-21T07:07:40.154Z,1010.26
2023-03-21T07:08:40.135Z,1010.25
2023-03-21T07:09:40.103Z,1010.31
2023-03-21T07:10:40.144Z,1010.23
2023-03-21T07:11:40.098Z,1010.24
2023-03-21T07:12:40.094Z,1010.20
2023-03-21T07:13:40.070Z,1010.21
2023-03-21T07:14:40.034Z,1010.24
2023-03-21T07:15:40.178Z,1010.19
2023-03-21T07:16:40.063Z,1010.19
2023-03-21T07:17:40.033Z,1010.25
2023-03-21T07:18:40.024Z,1010.28
2023-03-21T07:19:40.013Z,1010.23
2023-03-21T07:20:40.046Z,1010.23
2023-03-21T07:21:39.989Z,1010.17
2023-03-21T07:22:39.973Z,1010.23
2023-03-21T07:23:39.959Z,1010.22
2023-03-21T07:24:39.933Z,1010.26
2023-03-21T07:25:40.281Z,1010.24
2023-03-21T07:26:39.944Z,1010.25
2023-03-21T07:27:41.236Z,1010.23
2023-03-21T07:28:39.904Z,1010.25
2023-03-21T07:29:39.896Z,1010.27
2023-03-21T07:30:39.928Z,1010.27
2023-03-21T07:31:40.011Z,1010.28
2023-03-21T07:32:39.851Z,1010.25
2023-03-21T07:33:39.857Z,1010.31
2023-03-21T07:34:39.843Z,1010.27
2023-03-21T07:35:40.530Z,1010.32
2023-03-21T07:36:39.817Z,1010.32
2023-03-21T07:37:39.813Z,1010.32
2023-03-21T07:38:39.788Z,1010.29
2023-03-21T07:39:39.752Z,1010.31
2023-03-21T07:40:39.985Z,1010.35
2023-03-21T07:41:39.748Z,1010.36
2023-03-21T07:42:39.793Z,1010.35
2023-03-21T07:43:39.736Z,1010.40
2023-03-21T07:44:39.731Z,1010.38
2023-03-21T07:45:40.084Z,1010.38
2023-03-21T07:46:39.692Z,1010.39
2023-03-21T07:47:39.754Z,1010.39
2023-03-21T07:48:39.673Z,1010.40
2023-03-21T07:49:39.680Z,1010.41
2023-03-21T07:50:39.702Z,1010.37
2023-03-21T07:51:39.670Z,1010.38
2023-03-21T07:52:39.629Z,1010.38
2023-03-21T07:53:39.588Z,1010.34
2023-03-21T07:54:39.603Z,1010.33
2023-03-21T07:55:40.064Z,1010.38
2023-03-21T07:56:39.590Z,1010.37
2023-03-21T07:57:39.614Z,1010.37
2023-03-21T07:58:39.532Z,1010.37
2023-03-21T07:59:39.551Z,1010.32
2023-03-21T08:00:39.572Z,1010.28
2023-03-21T08:01:39.522Z,1010.31
2023-03-21T08:02:39.549Z,1010.33
2023-03-21T08:03:39.551Z,1010.34
2023-03-21T08:04:39.473Z,1010.33
2023-03-21T08:05:39.695Z,1010.36
2023-03-21T08:06:39.474Z,1010.35
2023-03-21T08:07:39.476Z,1010.24
2023-03-21T08:08:39.509Z,1010.31
2023-03-21T08:09:39.434Z,1010.34
2023-03-21T08:10:39.463Z,1010.35
2023-03-21T08:11:39.411Z,1010.36
2023-03-21T08:12:39.418Z,1010.37
2023-03-21T08:13:39.396Z,1010.36
2023-03-21T08:14:39.402Z,1010.37
2023-03-21T08:15:39.499Z,1010.35
2023-03-21T08:16:39.359Z,1010.40
2023-03-21T08:17:39.353Z,1010.39
2023-03-21T08:18:39.338Z,1010.36
2023-03-21T08:19:39.347Z,1010.35
2023-03-21T08:20:39.365Z,1010.34
2023-03-21T08:21:39.275Z,1010.33
2023-03-21T08:22:39.275Z,1010.34
2023-03-21T08:23:39.279Z,1010.38
2023-03-21T08:24:39.306Z,1010.40
2023-03-21T08:25:39.572Z,1010.37
2023-03-21T08:26:39.243Z,1010.37
2023-03-21T08:27:39.246Z,1010.39
2023-03-21T08:28:39.193Z,1010.38
2023-03-21T08:29:39.269Z,1010.38
2023-03-21T08:30:39.254Z,1010.37
2023-03-21T08:31:39.197Z,1010.40
2023-03-21T08:32:39.242Z,1010.37
2023-03-21T08:33:39.155Z,1010.39
2023-03-21T08:34:39.199Z,1010.38
2023-03-21T08:35:41.115Z,1010.35
2023-03-21T08:36:39.139Z,1010.36
2023-03-21T08:37:39.118Z,1010.37
2023-03-21T08:38:39.100Z,1010.36
2023-03-21T08:39:39.154Z,1010.39
2023-03-21T08:40:39.105Z,1010.40
2023-03-21T08:41:39.094Z,1010.40
2023-03-21T08:42:39.073Z,1010.40
2023-03-21T08:43:39.056Z,1010.40
2023-03-21T08:44:39.059Z,1010.40
2023-03-21T08:45:39.244Z,1010.38
2023-03-21T08:46:39.040Z,1010.36
2023-03-21T08:47:39.040Z,1010.38
2023-03-21T08:48:39.017Z,1010.39
2023-03-21T08:49:38.975Z,1010.39
2023-03-21T08:50:39.161Z,1010.42
2023-03-21T08:51:38.965Z,1010.40
2023-03-21T08:52:38.936Z,1010.39
2023-03-21T08:53:38.921Z,1010.44
2023-03-21T08:54:38.973Z,1010.42
2023-03-21T08:55:39.169Z,1010.43
2023-03-21T08:56:38.886Z,1010.43
2023-03-21T08:57:38.904Z,1010.43
2023-03-21T08:58:38.906Z,1010.43
2023-03-21T08:59:38.863Z,1010.46
2023-03-21T09:00:38.908Z,1010.40
2023-03-21T09:01:38.922Z,1010.41
2023-03-21T09:02:38.829Z,1010.39
2023-03-21T09:03:38.832Z,1010.40
2023-03-21T09:04:38.877Z,1010.40
2023-03-21T09:05:39.169Z,1010.42
2023-03-21T09:06:38.826Z,1010.35
2023-03-21T09:07:38.772Z,1010.37
2023-03-21T09:08:38.781Z,1010.37
2023-03-21T09:09:38.760Z,1010.38
2023-03-21T09:10:38.775Z,1010.41
2023-03-21T09:11:38.747Z,1010.37
2023-03-21T09:12:38.713Z,1010.37
2023-03-21T09:13:38.717Z,1010.37
2023-03-21T09:14:38.714Z,1010.32
2023-03-21T09:15:38.871Z,1010.31
2023-03-21T09:16:38.686Z,1010.33
2023-03-21T09:17:38.687Z,1010.29
2023-03-21T09:18:38.659Z,1010.26
2023-03-21T09:19:38.624Z,1010.29
2023-03-21T09:20:38.696Z,1010.36
2023-03-21T09:21:38.599Z,1010.33
2023-03-21T09:22:40.233Z,1010.33
2023-03-21T09:23:38.609Z,1010.32
2023-03-21T09:24:38.597Z,1010.27
2023-03-21T09:25:38.938Z,1010.30
2023-03-21T09:26:38.564Z,1010.28
2023-03-21T09:27:38.552Z,1010.27
2023-03-21T09:28:38.522Z,1010.25
2023-03-21T09:29:38.527Z,1010.32
2023-03-21T09:30:38.555Z,1010.30
2023-03-21T09:31:38.557Z,1010.35
2023-03-21T09:32:38.499Z,1010.29
2023-03-21T09:33:38.478Z,1010.27
2023-03-21T09:34:38.476Z,1010.30
2023-03-21T09:35:38.794Z,1010.29
2023-03-21T09:36:38.470Z,1010.30
2023-03-21T09:37:38.432Z,1010.33
2023-03-21T09:38:38.434Z,1010.35
2023-03-21T09:39:38.390Z,1010.32
2023-03-21T09:40:38.432Z,1010.31
2023-03-21T09:41:38.378Z,1010.34
2023-03-21T09:42:38.376Z,1010.29
2023-03-21T09:43:38.370Z,1010.30
2023-03-21T09:44:38.364Z,1010.33
2023-03-21T09:45:38.775Z,1010.32
2023-03-21T09:46:38.360Z,1010.29
2023-03-21T09:47:38.372Z,1010.24
2023-03-21T09:48:46.999Z,1010.29
2023-03-21T09:49:39.301Z,1010.21
2023-03-21T09:50:38.324Z,1010.25
2023-03-21T09:51:38.292Z,1010.22
2023-03-21T09:52:38.251Z,1010.24
2023-03-21T09:53:38.339Z,1010.22
2023-03-21T09:54:38.232Z,1010.25
2023-03-21T09:55:38.519Z,1010.26
2023-03-21T09:56:38.207Z,1010.24
2023-03-21T09:57:38.199Z,1010.26
2023-03-21T09:58:38.186Z,1010.25
2023-03-21T09:59:38.325Z,1010.25
2023-03-21T10:00:38.297Z,1010.26
2023-03-21T10:01:38.181Z,1010.27
2023-03-21T10:02:38.188Z,1010.21
2023-03-21T10:03:38.224Z,1010.17
2023-03-21T10:04:38.193Z,1010.18
2023-03-21T10:05:38.500Z,1010.19
2023-03-21T10:06:38.101Z,1010.20
2023-03-21T10:07:38.121Z,1010.14
2023-03-21T10:08:38.098Z,1010.14
2023-03-21T10:09:38.064Z,1010.20
2023-03-21T10:10:38.373Z,1010.17
2023-03-21T10:11:38.043Z,1010.15
2023-03-21T10:12:38.036Z,1010.15
2023-03-21T10:13:38.030Z,1010.14
2023-03-21T10:14:38.033Z,1010.18
2023-03-21T10:15:38.447Z,1010.14
2023-03-21T10:16:37.998Z,1010.16
2023-03-21T10:17:38.200Z,1010.18
2023-03-21T10:18:37.979Z,1010.17
2023-03-21T10:19:37.951Z,1010.14
2023-03-21T10:20:37.984Z,1010.20
2023-03-21T10:21:59.023Z,1010.20
2023-03-21T10:22:38.915Z,1010.12
2023-03-21T10:23:37.896Z,1010.12
2023-03-21T10:24:37.881Z,1010.12
2023-03-21T10:25:38.362Z,1010.12
2023-03-21T10:26:37.880Z,1010.11
2023-03-21T10:27:37.867Z,1010.07
2023-03-21T10:28:51.989Z,1010.10
2023-03-21T10:29:39.044Z,1010.13
2023-03-21T10:30:37.900Z,1010.05
2023-03-21T10:31:37.818Z,1010.05
2023-03-21T10:32:37.859Z,1010.06
2023-03-21T10:33:37.772Z,1010.04
2023-03-21T10:34:37.777Z,1010.05
2023-03-21T10:35:38.170Z,1009.99
2023-03-21T10:36:37.778Z,1010.01
2023-03-21T10:37:37.759Z,1010.06
2023-03-21T10:38:37.732Z,1010.04
2023-03-21T10:39:37.747Z,1010.02
2023-03-21T10:40:37.779Z,1010.01
2023-03-21T10:41:37.737Z,1009.99
2023-03-21T10:42:37.692Z,1009.99
2023-03-21T10:43:37.680Z,1009.95
2023-03-21T10:44:37.670Z,1009.96
2023-03-21T10:45:38.085Z,1010.03
2023-03-21T10:46:37.877Z,1009.95
2023-03-21T10:47:37.834Z,1009.98
2023-03-21T10:48:37.799Z,1010.00
2023-03-21T10:49:56.377Z,1009.99
2023-03-21T10:50:38.680Z,1009.99
2023-03-21T10:51:37.625Z,1010.06
2023-03-21T10:52:37.585Z,1010.02
2023-03-21T10:53:37.576Z,1009.96
2023-03-21T10:54:37.554Z,1009.97
2023-03-21T10:55:37.973Z,1009.99
2023-03-21T10:56:37.550Z,1009.98
2023-03-21T10:57:37.524Z,1009.93
2023-03-21T10:58:37.526Z,1009.96
2023-03-21T10:59:37.497Z,1009.92
2023-03-21T11:00:37.495Z,1009.88
2023-03-21T11:01:37.527Z,1009.92
2023-03-21T11:02:37.499Z,1009.90
2023-03-21T11:03:37.469Z,1009.90
2023-03-21T11:04:37.446Z,1009.87
2023-03-21T11:05:37.688Z,1009.86
2023-03-21T11:06:37.417Z,1009.83
2023-03-21T11:07:37.385Z,1009.82
2023-03-21T11:08:37.386Z,1009.80
2023-03-21T11:09:37.386Z,1009.80
2023-03-21T11:10:37.434Z,1009.79
2023-03-21T11:11:37.380Z,1009.76
2023-03-21T11:12:37.424Z,1009.78
2023-03-21T11:13:37.364Z,1009.78
2023-03-21T11:14:37.343Z,1009.76
2023-03-21T11:15:37.788Z,1009.74
2023-03-21T11:16:39.631Z,1009.76
2023-03-21T11:17:37.276Z,1009.75
2023-03-21T11:18:37.271Z,1009.77
2023-03-21T11:19:37.280Z,1009.75
2023-03-21T11:20:37.302Z,1009.73
2023-03-21T11:21:37.293Z,1009.69
2023-03-21T11:22:37.252Z,1009.69
2023-03-21T11:23:37.226Z,1009.68
2023-03-21T11:24:37.212Z,1009.67
2023-03-21T11:25:37.503Z,1009.68
2023-03-21T11:26:37.204Z,1009.68
2023-03-21T11:27:37.190Z,1009.73
2023-03-21T11:28:37.164Z,1009.75
2023-03-21T11:29:37.156Z,1009.66
2023-03-21T11:30:37.210Z,1009.72
2023-03-21T11:31:37.140Z,1009.71
2023-03-21T11:32:37.151Z,1009.65
2023-03-21T11:33:37.118Z,1009.64
2023-03-21T11:34:37.137Z,1009.69
2023-03-21T11:35:37.680Z,1009.64
2023-03-21T11:36:37.108Z,1009.66
2023-03-21T11:37:37.080Z,1009.68
2023-03-21T11:38:37.077Z,1009.65
2023-03-21T11:39:37.050Z,1009.63
2023-03-21T11:40:37.121Z,1009.63
2023-03-21T11:41:37.052Z,1009.64
2023-03-21T11:42:37.012Z,1009.67
2023-03-21T11:43:37.023Z,1009.64
2023-03-21T11:44:36.995Z,1009.62
2023-03-21T11:45:37.405Z,1009.55
2023-03-21T11:46:36.997Z,1009.57
2023-03-21T11:47:36.938Z,1009.60
2023-03-21T11:48:36.971Z,1009.59
2023-03-21T11:49:36.937Z,1009.55
2023-03-21T11:50:36.976Z,1009.51
2023-03-21T11:51:36.928Z,1009.53
2023-03-21T11:52:36.932Z,1009.46
2023-03-21T11:53:36.885Z,1009.49
2023-03-21T11:54:36.890Z,1009.49
2023-03-21T11:55:37.239Z,1009.47
2023-03-21T11:56:36.860Z,1009.49
2023-03-21T11:57:36.861Z,1009.51
2023-03-21T11:58:36.904Z,1009.48
2023-03-21T11:59:36.844Z,1009.40
2023-03-21T12:00:36.873Z,1009.38
2023-03-21T12:01:36.797Z,1009.44
2023-03-21T12:02:36.922Z,1009.44
2023-03-21T12:03:47.279Z,1009.43
2023-03-21T12:04:37.900Z,1009.42
2023-03-21T12:05:37.234Z,1009.33
2023-03-21T12:06:36.766Z,1009.39
2023-03-21T12:07:36.772Z,1009.32